KDAN/DAN METAR and TAF weather

Enter ICAO airport designator
Station Type Date Time Source
KDAN METAR 2020/07/11 16:53 UTC NOAA

KDAN 111653Z AUTO A2984 RMK AO2 SLPNO PWINO $


Station Type Date Time Source
KDAN Decoded METAR 2020/07/11 16:53 UTC NOAA

DANVILLE REGIONAL AIRPORT, VA, United States (KDAN) 36-34N 079-20W 175M
Jul 11, 2020 - 12:53 PM EDT / 2020.07.11 1653 UTC
Pressure (altimeter): 29.84 in. Hg (1010 hPa)
ob: KDAN 111653Z AUTO A2984 RMK AO2 SLPNO PWINO
cycle: 17

Station Type Date Time Source
KDAN TAF 2020/07/11 12:22 UTC NOAA

TAF KDAN 111120Z 1112/1212 25004KT 6SM BR SCT010
FM111400 28007KT P6SM FEW060
FM120100 28004KT P6SM SKC
AMD NOT SKED

Example: see airport list